Time;durP1;ratioP1;P1;durP2;ratioP2;P2;SDS_P1;SDS_P2;PMS_P1;PMS_P2;Temp;Humidity;BMP_temperature;BMP_pressure;BME280_temperature;BME280_humidity;BME280_pressure;Samples;Min_cycle;Max_cycle;Signal;HPM_P1;HPM_P2
2022/09/06 00:03:02;;;;;;;5.40;2.78;;;;;;;;;;5111897;27;20316;-69
2022/09/06 00:05:29;;;;;;;4.75;2.65;;;;;;;;;;5111240;28;20024;-69
2022/09/06 00:10:15;;;;;;;4.68;2.60;;;;;;;;;;5111788;27;20389;-69
2022/09/06 00:12:41;;;;;;;5.00;2.78;;;;;;;;;;5109605;28;20028;-70
2022/09/06 00:15:08;;;;;;;7.03;2.85;;;;;;;;;;5111559;28;20032;-70
2022/09/06 00:17:34;;;;;;;4.25;2.42;;;;;;;;;;5111276;28;20533;-69
2022/09/06 00:22:15;;;;;;;6.07;2.80;;;;;;;;;;5111808;27;20454;-68
2022/09/06 00:24:41;;;;;;;6.55;2.55;;;;;;;;;;5111563;28;20077;-69
2022/09/06 00:27:08;;;;;;;5.13;2.50;;;;;;;;;;5111164;28;20028;-69
2022/09/06 00:30:03;;;;;;;4.25;2.60;;;;;;;;;;5112229;27;20392;-68
2022/09/06 00:33:46;;;;;;;6.43;3.05;;;;;;;;;;5111584;27;20423;-68
2022/09/06 00:36:13;;;;;;;8.57;2.90;;;;;;;;;;5111383;28;20027;-68
2022/09/06 00:40:37;;;;;;;5.60;2.55;;;;;;;;;;5111225;27;20462;-69
2022/09/06 00:43:04;;;;;;;4.57;2.53;;;;;;;;;;5111343;28;20099;-69
2022/09/06 00:50:13;;;;;;;5.60;2.97;;;;;;;;;;5111407;27;20454;-69
2022/09/06 00:53:36;;;;;;;7.60;2.83;;;;;;;;;;5112223;27;20458;-69
2022/09/06 00:56:03;;;;;;;10.95;3.10;;;;;;;;;;5110926;28;20122;-69
2022/09/06 00:59:35;;;;;;;5.07;2.60;;;;;;;;;;5112117;27;20880;-69
2022/09/06 01:02:04;;;;;;;5.55;2.83;;;;;;;;;;5109607;28;20392;-70
2022/09/06 01:05:49;;;;;;;6.75;3.05;;;;;;;;;;5111407;27;20496;-69
2022/09/06 01:08:37;;;;;;;5.03;2.60;;;;;;;;;;5111352;28;20028;-68
2022/09/06 01:12:40;;;;;;;7.43;2.65;;;;;;;;;;5111718;27;20117;-68
2022/09/06 01:16:53;;;;;;;5.95;3.00;;;;;;;;;;5111327;27;20389;-68
2022/09/06 01:19:38;;;;;;;5.93;2.92;;;;;;;;;;5109978;28;20032;-68
2022/09/06 01:22:04;;;;;;;7.10;2.75;;;;;;;;;;5110032;28;20085;-68
2022/09/06 01:24:39;;;;;;;7.25;3.25;;;;;;;;;;5110815;28;20024;-68
2022/09/06 01:27:09;;;;;;;5.07;2.97;;;;;;;;;;5111266;28;20019;-68
2022/09/06 01:33:48;;;;;;;6.18;3.10;;;;;;;;;;5111935;27;20958;-68
2022/09/06 01:36:16;;;;;;;3.83;2.20;;;;;;;;;;5111700;28;20028;-69
2022/09/06 01:38:42;;;;;;;6.50;2.35;;;;;;;;;;5111185;28;20475;-68
2022/09/06 01:41:08;;;;;;;4.53;2.45;;;;;;;;;;5111227;28;20089;-68
2022/09/06 01:43:36;;;;;;;6.78;3.03;;;;;;;;;;5111232;28;20024;-68
2022/09/06 01:47:23;;;;;;;7.43;3.20;;;;;;;;;;5111441;27;20423;-68
2022/09/06 01:51:34;;;;;;;5.45;3.28;;;;;;;;;;5111052;27;20393;-68
2022/09/06 01:55:16;;;;;;;6.15;3.40;;;;;;;;;;5111891;27;20839;-68
2022/09/06 01:59:36;;;;;;;6.72;3.50;;;;;;;;;;5111012;27;20446;-69
2022/09/06 02:02:07;;;;;;;5.05;2.70;;;;;;;;;;5111515;28;20062;-69
2022/09/06 02:06:32;;;;;;;5.13;2.72;;;;;;;;;;5111156;27;20426;-68
2022/09/06 02:10:26;;;;;;;5.68;2.92;;;;;;;;;;5111789;27;20462;-68
2022/09/06 02:12:54;;;;;;;5.35;3.05;;;;;;;;;;5111031;28;20024;-68
2022/09/06 02:15:22;;;;;;;6.88;3.40;;;;;;;;;;5111436;28;20031;-68
2022/09/06 02:19:42;;;;;;;7.78;2.72;;;;;;;;;;5090857;28;20432;-68
2022/09/06 02:22:10;;;;;;;5.05;2.83;;;;;;;;;;5090918;28;20113;-68
2022/09/06 02:24:39;;;;;;;6.28;3.00;;;;;;;;;;5090793;28;20030;-68
2022/09/06 02:27:05;;;;;;;4.97;3.13;;;;;;;;;;5090408;28;20044;-68
2022/09/06 02:29:32;;;;;;;6.50;3.15;;;;;;;;;;5090786;28;20048;-68
2022/09/06 02:32:53;;;;;;;6.13;3.38;;;;;;;;;;5112068;27;20414;-68
2022/09/06 02:35:19;;;;;;;5.88;3.13;;;;;;;;;;5111370;28;20040;-68
2022/09/06 02:38:16;;;;;;;9.85;3.00;;;;;;;;;;5111588;27;20388;-68
2022/09/06 02:40:43;;;;;;;5.82;2.97;;;;;;;;;;5110929;28;20587;-68
2022/09/06 02:43:09;;;;;;;6.40;3.35;;;;;;;;;;5111477;28;20047;-68
2022/09/06 02:45:35;;;;;;;4.93;2.53;;;;;;;;;;5111393;28;20034;-68
2022/09/06 02:49:59;;;;;;;5.20;2.90;;;;;;;;;;5173387;27;20139;-68
2022/09/06 02:52:26;;;;;;;5.65;2.85;;;;;;;;;;5152489;27;20035;-68
2022/09/06 02:55:41;;;;;;;5.85;3.05;;;;;;;;;;5111254;27;20439;-68
2022/09/06 02:58:08;;;;;;;7.03;2.80;;;;;;;;;;5111342;28;20430;-68
2022/09/06 03:00:34;;;;;;;5.40;2.47;;;;;;;;;;5109968;28;20424;-68
2022/09/06 03:03:01;;;;;;;6.90;3.42;;;;;;;;;;5110845;28;20054;-68
2022/09/06 03:05:27;;;;;;;5.82;3.20;;;;;;;;;;5109800;28;20085;-69
2022/09/06 03:07:54;;;;;;;6.10;2.90;;;;;;;;;;5111128;28;20038;-68
2022/09/06 03:11:11;;;;;;;6.85;3.40;;;;;;;;;;5111627;27;20388;-68
2022/09/06 03:15:22;;;;;;;6.05;3.10;;;;;;;;;;5111731;27;20458;-68
2022/09/06 03:17:48;;;;;;;5.28;2.97;;;;;;;;;;5111366;28;20024;-69
2022/09/06 03:21:56;;;;;;;5.93;2.95;;;;;;;;;;5111973;27;20953;-68
2022/09/06 03:26:51;;;;;;;6.03;3.35;;;;;;;;;;5173464;27;20110;-68
2022/09/06 03:29:17;;;;;;;7.65;3.38;;;;;;;;;;5133551;27;20025;-68
2022/09/06 03:34:24;;;;;;;5.43;3.15;;;;;;;;;;5111940;27;20812;-68
2022/09/06 03:36:50;;;;;;;7.32;3.42;;;;;;;;;;5111015;28;20050;-68
2022/09/06 03:39:16;;;;;;;4.95;2.85;;;;;;;;;;5111258;28;20019;-68
2022/09/06 03:41:42;;;;;;;7.65;3.17;;;;;;;;;;5126973;28;20032;-68
2022/09/06 03:45:12;;;;;;;6.53;3.45;;;;;;;;;;5111046;27;20384;-68
2022/09/06 03:49:20;;;;;;;6.22;3.08;;;;;;;;;;5111884;27;20420;-68
2022/09/06 03:51:46;;;;;;;6.93;3.22;;;;;;;;;;5110941;28;20028;-68
2022/09/06 03:54:34;;;;;;;6.57;3.33;;;;;;;;;;5112072;27;20980;-68
2022/09/06 03:58:17;;;;;;;6.90;4.07;;;;;;;;;;5111010;27;20321;-68
2022/09/06 04:00:43;;;;;;;6.68;3.60;;;;;;;;;;5111256;28;20028;-68
2022/09/06 04:03:09;;;;;;;6.72;3.20;;;;;;;;;;5109933;28;20112;-68
2022/09/06 04:05:49;;;;;;;6.28;3.05;;;;;;;;;;5111050;27;20469;-68
2022/09/06 04:10:02;;;;;;;4.85;2.85;;;;;;;;;;5112015;27;20392;-68
2022/09/06 04:12:29;;;;;;;6.70;3.28;;;;;;;;;;5110903;28;20028;-69
2022/09/06 04:15:26;;;;;;;6.25;3.10;;;;;;;;;;5112217;27;20373;-69
2022/09/06 04:17:52;;;;;;;6.63;3.92;;;;;;;;;;5111343;28;20576;-69
2022/09/06 04:20:18;;;;;;;5.88;3.42;;;;;;;;;;5110847;28;20020;-69
2022/09/06 04:24:51;;;;;;;7.25;3.75;;;;;;;;;;5112107;27;20404;-68
2022/09/06 04:27:17;;;;;;;7.35;3.45;;;;;;;;;;5110941;28;20030;-68
2022/09/06 04:29:43;;;;;;;7.50;4.13;;;;;;;;;;5111246;28;20038;-68
2022/09/06 04:33:08;;;;;;;9.60;4.15;;;;;;;;;;5111512;27;20476;-69
2022/09/06 04:35:34;;;;;;;8.60;4.47;;;;;;;;;;5111369;28;20026;-69
2022/09/06 04:38:01;;;;;;;8.18;3.83;;;;;;;;;;5111233;28;20035;-69
2022/09/06 04:42:41;;;;;;;5.88;3.30;;;;;;;;;;5111724;27;20982;-69
2022/09/06 04:45:20;;;;;;;9.02;3.75;;;;;;;;;;5112110;27;20412;-69
2022/09/06 04:47:46;;;;;;;11.20;3.88;;;;;;;;;;5110932;28;20063;-69
2022/09/06 04:53:54;;;;;;;10.77;4.05;;;;;;;;;;5110944;27;20814;-69
2022/09/06 04:56:21;;;;;;;7.45;3.70;;;;;;;;;;5111350;28;20102;-68
2022/09/06 05:03:27;;;;;;;6.32;3.92;;;;;;;;;;5112060;27;20476;-69
2022/09/06 05:07:12;;;;;;;9.80;3.70;;;;;;;;;;5173750;27;20318;-69
2022/09/06 05:10:43;;;;;;;6.55;3.47;;;;;;;;;;5110939;27;20821;-68
2022/09/06 05:13:09;;;;;;;8.98;3.55;;;;;;;;;;5109576;28;20027;-68
2022/09/06 05:18:44;;;;;;;6.18;3.88;;;;;;;;;;5152431;27;20331;-71
2022/09/06 05:23:09;;;;;;;6.70;3.97;;;;;;;;;;5107069;27;20165;-69
2022/09/06 05:25:36;;;;;;;7.30;4.10;;;;;;;;;;5069461;28;20078;-69
2022/09/06 05:28:04;;;;;;;6.45;3.83;;;;;;;;;;5088601;28;20527;-69
2022/09/06 05:31:29;;;;;;;5.82;3.53;;;;;;;;;;5108732;27;20409;-69
2022/09/06 05:33:57;;;;;;;7.70;4.13;;;;;;;;;;5087370;28;20020;-69
2022/09/06 05:36:27;;;;;;;8.65;4.25;;;;;;;;;;5086986;28;20060;-69
2022/09/06 05:38:55;;;;;;;12.25;5.28;;;;;;;;;;5088913;28;20020;-69
2022/09/06 05:41:22;;;;;;;8.30;4.32;;;;;;;;;;5088600;28;20586;-68
2022/09/06 05:45:08;;;;;;;8.48;5.07;;;;;;;;;;5102951;27;20467;-67
2022/09/06 05:47:37;;;;;;;14.15;5.38;;;;;;;;;;5071763;28;20040;-69
2022/09/06 05:50:08;;;;;;;13.88;3.95;;;;;;;;;;5090459;28;20044;-70
2022/09/06 05:52:38;;;;;;;9.77;3.90;;;;;;;;;;5090743;28;20052;-69
2022/09/06 05:55:07;;;;;;;12.70;4.57;;;;;;;;;;5090537;28;20044;-71
2022/09/06 06:00:06;;;;;;;11.30;7.05;;;;;;;;;;5093383;27;20403;-72
2022/09/06 06:02:33;;;;;;;8.75;5.28;;;;;;;;;;5087114;28;20103;-73
2022/09/06 06:05:50;;;;;;;9.75;4.45;;;;;;;;;;4806308;27;8037047;-71
2022/09/06 06:08:54;;;;;;;6.10;3.90;;;;;;;;;;4713072;27;10733198;-70
2022/09/06 06:11:24;;;;;;;7.97;3.78;;;;;;;;;;5064668;28;20090;-69
2022/09/06 06:13:55;;;;;;;8.75;4.13;;;;;;;;;;5040809;28;20507;-69
2022/09/06 06:16:25;;;;;;;8.18;4.05;;;;;;;;;;5047278;28;20039;-72
2022/09/06 06:20:12;;;;;;;7.72;3.90;;;;;;;;;;4815098;27;7339588;-70
2022/09/06 06:25:29;;;;;;;7.78;3.95;;;;;;;;;;5085607;27;20414;-70
2022/09/06 06:27:55;;;;;;;7.28;4.13;;;;;;;;;;5108058;28;20535;-69
2022/09/06 06:30:22;;;;;;;6.45;3.28;;;;;;;;;;5090724;28;20488;-68
2022/09/06 06:32:48;;;;;;;6.65;3.72;;;;;;;;;;5087969;28;20017;-67
2022/09/06 06:35:15;;;;;;;9.13;3.92;;;;;;;;;;5087281;28;20025;-72
2022/09/06 06:38:58;;;;;;;7.18;3.70;;;;;;;;;;5107242;27;20389;-68
2022/09/06 06:41:26;;;;;;;6.30;3.33;;;;;;;;;;5106167;28;20119;-67
2022/09/06 06:43:56;;;;;;;7.93;4.22;;;;;;;;;;5107693;28;20047;-69
2022/09/06 06:46:27;;;;;;;6.95;3.90;;;;;;;;;;5097812;28;20027;-70
2022/09/06 06:51:20;;;;;;;8.48;4.40;;;;;;;;;;5103003;27;20479;-67
2022/09/06 06:53:47;;;;;;;5.40;3.22;;;;;;;;;;5090360;28;20040;-72
2022/09/06 06:56:44;;;;;;;5.78;3.08;;;;;;;;;;5129574;27;20368;-69
2022/09/06 07:00:04;;;;;;;12.05;7.70;;;;;;;;;;5108431;27;20435;-69
2022/09/06 07:06:14;;;;;;;9.55;4.78;;;;;;;;;;5126984;27;20712;-68
2022/09/06 07:08:40;;;;;;;8.50;4.28;;;;;;;;;;5127841;28;20019;-68
2022/09/06 07:11:08;;;;;;;7.57;3.85;;;;;;;;;;5128167;28;20558;-69
2022/09/06 07:14:35;;;;;;;6.07;3.60;;;;;;;;;;5065915;27;20415;-68
2022/09/06 07:17:08;;;;;;;8.80;3.95;;;;;;;;;;5065451;28;20024;-67
2022/09/06 07:19:37;;;;;;;10.63;6.97;;;;;;;;;;5064299;28;20028;-68
2022/09/06 07:23:44;;;;;;;7.53;4.25;;;;;;;;;;5063040;28;20318;-66
2022/09/06 07:26:14;;;;;;;10.35;4.50;;;;;;;;;;5063839;28;20025;-67
2022/09/06 07:30:48;;;;;;;8.68;4.20;;;;;;;;;;5106336;27;20412;-68
2022/09/06 07:35:21;;;;;;;7.30;4.47;;;;;;;;;;5104253;27;20846;-71
2022/09/06 07:38:03;;;;;;;8.80;5.25;;;;;;;;;;5107283;27;20458;-69
2022/09/06 07:41:58;;;;;;;6.72;4.72;;;;;;;;;;5149624;27;20344;-67
2022/09/06 07:44:25;;;;;;;7.57;4.97;;;;;;;;;;5149557;27;20030;-67
2022/09/06 07:46:51;;;;;;;8.18;5.03;;;;;;;;;;5148991;27;20098;-68
2022/09/06 07:49:17;;;;;;;8.35;4.75;;;;;;;;;;5149707;27;20502;-69
2022/09/06 07:53:12;;;;;;;6.70;4.35;;;;;;;;;;5067876;28;20990;-69
2022/09/06 07:58:03;;;;;;;19.63;5.25;;;;;;;;;;5107956;27;20424;-70
2022/09/06 08:02:24;;;;;;;9.40;5.90;;;;;;;;;;5103012;27;20450;-70
2022/09/06 08:04:51;;;;;;;9.02;5.40;;;;;;;;;;5087543;28;20056;-68
2022/09/06 08:07:17;;;;;;;8.32;4.75;;;;;;;;;;5086931;28;20055;-70
2022/09/06 08:11:28;;;;;;;7.75;5.20;;;;;;;;;;5148257;27;20113;-72
2022/09/06 08:13:55;;;;;;;8.20;5.10;;;;;;;;;;5127662;28;20112;-70
2022/09/06 08:16:22;;;;;;;10.52;6.28;;;;;;;;;;5127852;28;20476;-72
2022/09/06 08:18:53;;;;;;;15.80;5.22;;;;;;;;;;5126869;28;20042;-72
2022/09/06 08:21:19;;;;;;;9.40;5.60;;;;;;;;;;5127928;28;20029;-71
2022/09/06 08:25:56;;;;;;;9.27;5.47;;;;;;;;;;5065831;28;20483;-72
2022/09/06 08:28:22;;;;;;;9.57;6.20;;;;;;;;;;5066732;28;20385;-75
2022/09/06 08:30:48;;;;;;;11.07;6.63;;;;;;;;;;5065439;28;20035;-74
2022/09/06 08:33:58;;;;;;;11.60;6.68;;;;;;;;;;5066069;28;20911;-73
2022/09/06 08:36:31;;;;;;;9.82;6.90;;;;;;;;;;5065655;28;20033;-72
2022/09/06 08:42:54;;;;;;;14.07;6.15;;;;;;;;;;5110294;27;20377;-73
2022/09/06 08:45:22;;;;;;;8.38;6.05;;;;;;;;;;5110111;28;20027;-71
2022/09/06 08:47:49;;;;;;;8.95;6.50;;;;;;;;;;5109314;28;20020;-75
2022/09/06 08:50:16;;;;;;;8.48;5.97;;;;;;;;;;5107927;28;20118;-74
2022/09/06 08:52:46;;;;;;;10.98;6.80;;;;;;;;;;5102978;28;20077;-72
2022/09/06 08:55:18;;;;;;;9.05;6.60;;;;;;;;;;5092269;28;20649;-73
2022/09/06 08:57:48;;;;;;;8.70;6.25;;;;;;;;;;5087116;28;20056;-72
2022/09/06 09:00:15;;;;;;;8.65;6.03;;;;;;;;;;5106957;28;20099;-70
2022/09/06 09:04:44;;;;;;;8.70;5.65;;;;;;;;;;5108440;27;20389;-73
2022/09/06 09:07:22;;;;;;;10.07;6.32;;;;;;;;;;5108318;28;20028;-74
2022/09/06 09:09:49;;;;;;;9.52;6.07;;;;;;;;;;5096209;28;20422;-73
2022/09/06 09:12:20;;;;;;;9.55;6.70;;;;;;;;;;5107572;28;20031;-75
2022/09/06 09:14:47;;;;;;;7.32;5.28;;;;;;;;;;5087246;28;20031;-75
2022/09/06 09:17:19;;;;;;;9.27;6.60;;;;;;;;;;5083780;28;20105;-76
2022/09/06 09:19:45;;;;;;;9.35;6.03;;;;;;;;;;5109556;28;20024;-76
2022/09/06 09:22:13;;;;;;;8.50;5.45;;;;;;;;;;5103465;28;20115;-79
2022/09/06 09:24:40;;;;;;;9.65;5.78;;;;;;;;;;5108673;28;20047;-77
2022/09/06 09:27:10;;;;;;;9.45;5.47;;;;;;;;;;5092054;28;20024;-76
2022/09/06 09:29:54;;;;;;;8.85;5.53;;;;;;;;;;5104114;28;20168;-82
2022/09/06 09:32:32;;;;;;;7.93;5.18;;;;;;;;;;5108131;28;20103;-81
2022/09/06 09:36:28;;;;;;;8.57;5.55;;;;;;;;;;5095668;27;20604;-80
2022/09/06 09:38:55;;;;;;;9.00;5.18;;;;;;;;;;5108260;28;20028;-79
2022/09/06 09:41:28;;;;;;;9.07;5.55;;;;;;;;;;5106896;28;20028;-74
2022/09/06 09:43:54;;;;;;;;;;;;;;;;;;5092164;28;20108;-71
2022/09/06 09:46:23;;;;;;;9.48;4.78;;;;;;;;;;5076997;28;20003;-79
2022/09/06 09:51:20;;;;;;;7.30;4.60;;;;;;;;;;5068690;28;20419;-78
2022/09/06 09:53:50;;;;;;;8.55;4.60;;;;;;;;;;5068481;28;20104;-76
2022/09/06 09:56:17;;;;;;;7.07;4.90;;;;;;;;;;5067754;28;20020;-75
2022/09/06 09:58:43;;;;;;;7.25;4.28;;;;;;;;;;5069067;28;20032;-78
2022/09/06 10:01:17;;;;;;;7.68;4.57;;;;;;;;;;5062315;28;20090;-76
2022/09/06 10:03:43;;;;;;;6.95;4.25;;;;;;;;;;5067654;28;20028;-78
2022/09/06 10:06:11;;;;;;;5.97;3.80;;;;;;;;;;5069703;28;20029;-77
2022/09/06 10:08:41;;;;;;;8.32;5.35;;;;;;;;;;5068558;28;20074;-77
2022/09/06 10:11:10;;;;;;;7.32;4.45;;;;;;;;;;5063486;28;20033;-77
2022/09/06 10:13:36;;;;;;;6.72;4.13;;;;;;;;;;5067366;28;20021;-74
2022/09/06 10:16:03;;;;;;;4.80;3.50;;;;;;;;;;5067226;28;20476;-73
2022/09/06 10:18:30;;;;;;;6.30;3.70;;;;;;;;;;5066963;28;20397;-76
2022/09/06 10:20:59;;;;;;;6.88;4.00;;;;;;;;;;5067480;28;20537;-76
2022/09/06 10:23:29;;;;;;;6.60;3.90;;;;;;;;;;5067265;28;20033;-74
2022/09/06 10:26:02;;;;;;;5.88;3.67;;;;;;;;;;5067148;28;20025;-77
2022/09/06 10:28:28;;;;;;;9.13;3.83;;;;;;;;;;5065891;28;20029;-78
2022/09/06 10:31:10;;;;;;;5.93;3.53;;;;;;;;;;5066685;28;20036;-76
2022/09/06 10:33:48;;;;;;;5.80;3.55;;;;;;;;;;5068708;28;20027;-76
2022/09/06 10:36:19;;;;;;;5.65;3.50;;;;;;;;;;5068514;28;20017;-78
2022/09/06 10:38:50;;;;;;;7.30;3.75;;;;;;;;;;5066955;28;20028;-77
2022/09/06 10:41:19;;;;;;;4.78;3.30;;;;;;;;;;5065734;28;20024;-77
2022/09/06 10:44:05;;;;;;;7.10;3.05;;;;;;;;;;5067019;28;20438;-76
2022/09/06 10:46:33;;;;;;;5.88;3.40;;;;;;;;;;5065518;28;20021;-77
2022/09/06 10:48:59;;;;;;;6.70;3.55;;;;;;;;;;5064351;28;20045;-76
2022/09/06 10:51:29;;;;;;;6.65;3.60;;;;;;;;;;5067529;28;20449;-73
2022/09/06 10:54:05;;;;;;;5.35;3.53;;;;;;;;;;5065623;28;20102;-77
2022/09/06 10:56:34;;;;;;;6.00;3.65;;;;;;;;;;5068911;28;20059;-78
2022/09/06 10:59:11;;;;;;;5.28;3.30;;;;;;;;;;5068892;28;20016;-76
2022/09/06 11:01:40;;;;;;;9.00;3.50;;;;;;;;;;5060179;28;20017;-78
2022/09/06 11:04:11;;;;;;;5.05;3.40;;;;;;;;;;5055881;28;20056;-76
2022/09/06 11:06:43;;;;;;;5.85;3.30;;;;;;;;;;5054133;28;20013;-80
2022/09/06 11:09:18;;;;;;;5.93;3.50;;;;;;;;;;5056652;28;20029;-78
2022/09/06 11:11:50;;;;;;;6.85;3.58;;;;;;;;;;5055783;28;20029;-80
2022/09/06 11:14:18;;;;;;;5.70;3.53;;;;;;;;;;5054500;28;20076;-81
2022/09/06 11:16:48;;;;;;;5.90;3.42;;;;;;;;;;5055960;28;20021;-81
2022/09/06 11:19:23;;;;;;;6.32;3.30;;;;;;;;;;5054305;28;20385;-76
2022/09/06 11:22:08;;;;;;;6.43;3.28;;;;;;;;;;5053974;28;20025;-80
2022/09/06 11:24:34;;;;;;;5.80;3.58;;;;;;;;;;5055662;28;20025;-83
2022/09/06 11:27:15;;;;;;;6.57;3.30;;;;;;;;;;5055396;28;20021;-82
2022/09/06 11:29:44;;;;;;;8.98;3.45;;;;;;;;;;5055396;28;20025;-82
2022/09/06 11:32:32;;;;;;;6.45;3.65;;;;;;;;;;5055955;28;20032;-70
2022/09/06 11:35:00;;;;;;;4.78;3.00;;;;;;;;;;5055085;28;20028;-72
2022/09/06 11:37:34;;;;;;;8.38;3.25;;;;;;;;;;5055614;28;20412;-72
2022/09/06 11:40:06;;;;;;;6.70;3.55;;;;;;;;;;5054175;28;20021;-72
2022/09/06 11:42:36;;;;;;;4.65;2.85;;;;;;;;;;5055008;28;20033;-72
2022/09/06 11:45:05;;;;;;;6.10;2.80;;;;;;;;;;5055404;28;20096;-73
2022/09/06 11:47:40;;;;;;;3.95;2.70;;;;;;;;;;5055365;28;20017;-72
2022/09/06 11:50:27;;;;;;;6.00;3.15;;;;;;;;;;5053357;28;20509;-72
2022/09/06 11:53:01;;;;;;;4.18;2.58;;;;;;;;;;5055539;28;20039;-72
2022/09/06 11:55:38;;;;;;;6.50;2.33;;;;;;;;;;5055127;28;20017;-73
2022/09/06 11:58:20;;;;;;;3.65;2.28;;;;;;;;;;5055178;28;20081;-72
2022/09/06 12:01:06;;;;;;;3.53;1.90;;;;;;;;;;5055294;28;20032;-73
2022/09/06 12:03:55;;;;;;;4.63;2.30;;;;;;;;;;5053219;28;20036;-73
2022/09/06 12:06:22;;;;;;;4.85;2.45;;;;;;;;;;5049604;28;20147;-72
2022/09/06 12:08:51;;;;;;;3.08;2.00;;;;;;;;;;5054766;28;20017;-72
2022/09/06 12:11:20;;;;;;;4.47;2.30;;;;;;;;;;5054553;28;20029;-72
2022/09/06 12:13:55;;;;;;;5.03;3.10;;;;;;;;;;5054077;28;20021;-72
2022/09/06 12:16:22;;;;;;;3.25;2.20;;;;;;;;;;5053561;28;20025;-72
2022/09/06 12:18:48;;;;;;;3.88;2.10;;;;;;;;;;5055274;28;20404;-72
2022/09/06 12:21:33;;;;;;;3.10;1.92;;;;;;;;;;5054826;28;20025;-72
2022/09/06 12:24:00;;;;;;;3.85;1.98;;;;;;;;;;5054207;28;20071;-72
2022/09/06 12:26:46;;;;;;;3.65;2.00;;;;;;;;;;5053345;28;20051;-72
2022/09/06 12:29:12;;;;;;;3.72;2.13;;;;;;;;;;5054606;28;20033;-72
2022/09/06 12:31:55;;;;;;;4.38;2.28;;;;;;;;;;5054347;28;20082;-73
2022/09/06 12:34:26;;;;;;;3.22;2.28;;;;;;;;;;5054454;28;20021;-73
2022/09/06 12:36:54;;;;;;;2.60;1.80;;;;;;;;;;5054496;28;20025;-73
2022/09/06 12:39:20;;;;;;;6.57;2.20;;;;;;;;;;5053992;28;20033;-73
2022/09/06 12:41:49;;;;;;;3.92;2.15;;;;;;;;;;5054508;28;20023;-73
2022/09/06 12:44:16;;;;;;;3.22;1.73;;;;;;;;;;5054344;28;20029;-73
2022/09/06 12:46:47;;;;;;;2.55;1.70;;;;;;;;;;5053902;28;20025;-73
2022/09/06 12:49:15;;;;;;;5.93;2.17;;;;;;;;;;5053877;28;20496;-74
2022/09/06 12:51:42;;;;;;;3.60;1.80;;;;;;;;;;5053962;28;20461;-72
2022/09/06 12:54:20;;;;;;;2.75;1.73;;;;;;;;;;5054202;28;20087;-72
2022/09/06 12:56:47;;;;;;;5.07;2.17;;;;;;;;;;5053853;28;20021;-72
2022/09/06 12:59:13;;;;;;;2.88;1.90;;;;;;;;;;5053829;28;20017;-73
2022/09/06 13:01:43;;;;;;;3.53;2.13;;;;;;;;;;5052489;28;20048;-73
2022/09/06 13:04:15;;;;;;;4.18;2.42;;;;;;;;;;5052882;28;20025;-73
2022/09/06 13:06:41;;;;;;;;;;;;;;;;;;5053915;28;20025;-73
2022/09/06 13:09:09;;;;;;;4.18;1.88;;;;;;;;;;5053998;28;20284;-73
2022/09/06 13:11:37;;;;;;;3.53;2.15;;;;;;;;;;5053808;28;20481;-73
2022/09/06 13:14:17;;;;;;;2.45;1.95;;;;;;;;;;5053358;28;20021;-73
2022/09/06 13:16:44;;;;;;;2.20;1.60;;;;;;;;;;5052472;28;20037;-73
2022/09/06 13:19:34;;;;;;;4.03;1.88;;;;;;;;;;5053705;28;20025;-73
2022/09/06 13:22:00;;;;;;;5.00;1.95;;;;;;;;;;5047742;28;20087;-72
2022/09/06 13:24:41;;;;;;;3.67;2.03;;;;;;;;;;5049891;28;20096;-72
2022/09/06 13:27:46;;;;;;;8.13;1.88;;;;;;;;;;5052811;28;20029;-72
2022/09/06 13:30:31;;;;;;;2.50;1.85;;;;;;;;;;5011530;28;20045;-72
2022/09/06 13:32:57;;;;;;;3.72;2.22;;;;;;;;;;5010792;28;20061;-72
2022/09/06 13:35:28;;;;;;;3.78;2.30;;;;;;;;;;5036201;28;20477;-72
2022/09/06 13:38:13;;;;;;;2.88;1.98;;;;;;;;;;5051609;28;20474;-72
2022/09/06 13:40:42;;;;;;;11.15;2.80;;;;;;;;;;5053361;28;20044;-73
2022/09/06 13:43:11;;;;;;;6.05;3.42;;;;;;;;;;5052835;28;20071;-72
2022/09/06 13:45:38;;;;;;;4.07;2.40;;;;;;;;;;5051205;28;20021;-72
2022/09/06 13:48:04;;;;;;;3.28;2.10;;;;;;;;;;5051485;28;20377;-72
2022/09/06 13:50:31;;;;;;;4.50;2.13;;;;;;;;;;5049830;28;20055;-72
2022/09/06 13:52:57;;;;;;;4.97;2.47;;;;;;;;;;5052994;28;20021;-72
2022/09/06 13:55:24;;;;;;;3.22;2.00;;;;;;;;;;5052775;28;20029;-73
2022/09/06 13:57:50;;;;;;;2.85;2.17;;;;;;;;;;5053206;28;20021;-73
2022/09/06 14:00:16;;;;;;;2.65;1.90;;;;;;;;;;5053550;28;20385;-73
2022/09/06 14:02:42;;;;;;;4.35;2.63;;;;;;;;;;5051432;28;20029;-73
2022/09/06 14:05:09;;;;;;;4.88;2.55;;;;;;;;;;5052018;28;20021;-73
2022/09/06 14:07:35;;;;;;;4.70;2.92;;;;;;;;;;5053125;28;20143;-73
2022/09/06 14:10:01;;;;;;;4.88;2.60;;;;;;;;;;5052613;28;20029;-73
2022/09/06 14:12:32;;;;;;;4.95;2.60;;;;;;;;;;5053118;28;20025;-73
2022/09/06 14:14:58;;;;;;;3.40;2.20;;;;;;;;;;5053256;28;20021;-73
2022/09/06 14:17:24;;;;;;;4.18;2.60;;;;;;;;;;5052626;28;20021;-73
2022/09/06 14:19:50;;;;;;;3.60;2.20;;;;;;;;;;5051808;28;20021;-73
2022/09/06 14:22:16;;;;;;;3.35;1.88;;;;;;;;;;5051744;28;20022;-71
2022/09/06 14:24:43;;;;;;;2.90;1.98;;;;;;;;;;5052625;28;20032;-72
2022/09/06 14:27:09;;;;;;;3.35;2.22;;;;;;;;;;5052964;28;20021;-73
2022/09/06 14:29:35;;;;;;;5.25;2.72;;;;;;;;;;5052874;28;20037;-73
2022/09/06 14:32:01;;;;;;;3.03;2.00;;;;;;;;;;5052638;28;20021;-72
2022/09/06 14:34:28;;;;;;;3.30;2.15;;;;;;;;;;5051557;28;20388;-72
2022/09/06 14:36:54;;;;;;;2.85;2.05;;;;;;;;;;5055178;28;20025;-72
2022/09/06 14:39:20;;;;;;;3.38;2.30;;;;;;;;;;5056308;28;20017;-72
2022/09/06 14:41:47;;;;;;;5.20;2.30;;;;;;;;;;5056558;28;20040;-72
2022/09/06 14:44:13;;;;;;;4.63;2.78;;;;;;;;;;5056170;28;20380;-72
2022/09/06 14:46:39;;;;;;;9.45;2.80;;;;;;;;;;5056475;28;20205;-72
2022/09/06 14:49:07;;;;;;;5.00;2.83;;;;;;;;;;5056156;28;20045;-72
2022/09/06 14:51:33;;;;;;;4.20;2.50;;;;;;;;;;5055951;28;20028;-72
2022/09/06 14:54:04;;;;;;;3.80;2.20;;;;;;;;;;5056145;28;20043;-72
2022/09/06 14:56:30;;;;;;;4.47;2.28;;;;;;;;;;5056792;28;20113;-72
2022/09/06 14:58:56;;;;;;;5.55;2.55;;;;;;;;;;5056080;28;20025;-73
2022/09/06 15:01:23;;;;;;;4.95;2.20;;;;;;;;;;5056055;28;20025;-73
2022/09/06 15:03:54;;;;;;;5.00;2.80;;;;;;;;;;5056238;28;20032;-72
2022/09/06 15:06:21;;;;;;;5.30;2.72;;;;;;;;;;5056115;28;20017;-73
2022/09/06 15:08:47;;;;;;;4.07;2.35;;;;;;;;;;5056357;28;20029;-73
2022/09/06 15:11:14;;;;;;;3.60;2.50;;;;;;;;;;5055999;28;20036;-73
2022/09/06 15:13:41;;;;;;;3.45;2.25;;;;;;;;;;5055509;28;20024;-73
2022/09/06 15:16:08;;;;;;;4.57;2.45;;;;;;;;;;5056145;28;20036;-72
2022/09/06 15:18:34;;;;;;;4.95;2.13;;;;;;;;;;5054697;28;20497;-73
2022/09/06 15:21:13;;;;;;;5.03;2.58;;;;;;;;;;5055460;28;20021;-73
2022/09/06 15:23:40;;;;;;;4.38;2.00;;;;;;;;;;5055974;28;20029;-72
2022/09/06 15:26:07;;;;;;;3.58;2.45;;;;;;;;;;5055991;28;20029;-73
2022/09/06 15:28:34;;;;;;;4.95;2.72;;;;;;;;;;5055260;28;20033;-72
2022/09/06 15:31:00;;;;;;;5.45;3.00;;;;;;;;;;5055630;28;20095;-72
2022/09/06 15:33:30;;;;;;;4.93;2.80;;;;;;;;;;5055258;28;20467;-73
2022/09/06 15:35:57;;;;;;;5.60;2.75;;;;;;;;;;5055592;28;20103;-72
2022/09/06 15:38:23;;;;;;;3.15;2.10;;;;;;;;;;5055780;28;20029;-72
2022/09/06 15:40:49;;;;;;;3.63;2.22;;;;;;;;;;5053815;28;20091;-72
2022/09/06 15:43:15;;;;;;;4.05;2.75;;;;;;;;;;5055409;28;20100;-72
2022/09/06 15:45:46;;;;;;;6.47;3.08;;;;;;;;;;5055351;28;20102;-73
2022/09/06 15:48:14;;;;;;;5.07;3.05;;;;;;;;;;5055362;28;20056;-72
2022/09/06 15:50:40;;;;;;;3.63;2.42;;;;;;;;;;5053812;28;20053;-73
2022/09/06 15:53:07;;;;;;;5.95;2.78;;;;;;;;;;5055288;28;20029;-73
2022/09/06 15:58:18;;;;;;;4.50;2.50;;;;;;;;;;5055514;28;20040;-73
2022/09/06 16:00:44;;;;;;;2.72;2.08;;;;;;;;;;5055241;28;20020;-73
2022/09/06 16:03:10;;;;;;;3.85;2.42;;;;;;;;;;5054700;28;20053;-73
2022/09/06 16:05:37;;;;;;;5.97;2.63;;;;;;;;;;5055330;28;20032;-73
2022/09/06 16:08:03;;;;;;;3.78;2.20;;;;;;;;;;5054975;28;20485;-73
2022/09/06 16:10:29;;;;;;;4.40;2.35;;;;;;;;;;5054478;28;20033;-73
2022/09/06 16:12:56;;;;;;;3.78;2.25;;;;;;;;;;5054785;28;20028;-72
2022/09/06 16:15:22;;;;;;;4.70;2.63;;;;;;;;;;5055243;28;20099;-73
2022/09/06 16:17:48;;;;;;;6.43;2.70;;;;;;;;;;5054435;28;20017;-73
2022/09/06 16:20:14;;;;;;;8.30;2.70;;;;;;;;;;5053443;28;20556;-72
2022/09/06 16:22:40;;;;;;;4.97;2.60;;;;;;;;;;5054658;28;20048;-72
2022/09/06 16:25:07;;;;;;;5.43;3.08;;;;;;;;;;5054150;28;20053;-73
2022/09/06 16:27:33;;;;;;;3.92;2.65;;;;;;;;;;5054542;28;20099;-72
2022/09/06 16:29:59;;;;;;;5.07;2.88;;;;;;;;;;5054104;28;20120;-73
2022/09/06 16:32:26;;;;;;;5.63;3.60;;;;;;;;;;5054584;28;20485;-72
2022/09/06 16:34:52;;;;;;;6.43;3.35;;;;;;;;;;5054387;28;20029;-72
2022/09/06 16:37:18;;;;;;;4.95;3.00;;;;;;;;;;5054202;28;20029;-73
2022/09/06 16:39:44;;;;;;;9.40;3.20;;;;;;;;;;5054371;28;20036;-72
2022/09/06 16:42:12;;;;;;;4.63;2.65;;;;;;;;;;5054327;28;20048;-72
2022/09/06 16:44:38;;;;;;;5.10;2.85;;;;;;;;;;5053890;28;20025;-72
2022/09/06 16:47:04;;;;;;;5.05;2.63;;;;;;;;;;5054254;28;20418;-71
2022/09/06 16:49:31;;;;;;;5.18;2.70;;;;;;;;;;5053937;28;20493;-71
2022/09/06 16:51:57;;;;;;;12.10;4.20;;;;;;;;;;5053849;28;20056;-72
2022/09/06 16:54:23;;;;;;;10.30;4.40;;;;;;;;;;5054031;28;20029;-72
2022/09/06 16:56:49;;;;;;;15.23;7.68;;;;;;;;;;5052730;28;20025;-72
2022/09/06 16:59:16;;;;;;;15.80;8.38;;;;;;;;;;5051829;28;20013;-72
2022/09/06 17:01:43;;;;;;;12.48;6.35;;;;;;;;;;5052719;28;20075;-73